TimeCDT,TemperatureF,Dew PointF,Humidity,Sea Level PressureIn,VisibilityMPH,Wind Direction,Wind SpeedMPH,Gust SpeedMPH,PrecipitationIn,Events,Conditions,WindDirDegrees,DateUTC
12:15 AM,66.2,60.8,83,30.11,10.0,Calm,Calm,-,N/A,,Clear,0,2013-08-05 05:15:00
12:35 AM,64.4,60.8,88,30.10,10.0,Calm,Calm,-,N/A,,Clear,0,2013-08-05 05:35:00
12:55 AM,64.4,60.8,88,30.09,10.0,Calm,Calm,-,N/A,,Clear,0,2013-08-05 05:55:00
1:15 AM,64.4,60.8,88,30.08,10.0,Calm,Calm,-,N/A,,Clear,0,2013-08-05 06:15:00
1:35 AM,66.2,62.6,88,30.07,10.0,South,3.5,-,N/A,,Clear,170,2013-08-05 06:35:00
1:55 AM,64.4,62.6,94,30.07,10.0,South,4.6,-,N/A,,Clear,180,2013-08-05 06:55:00
2:15 AM,64.4,62.6,94,30.06,10.0,SSE,3.5,-,N/A,,Clear,160,2013-08-05 07:15:00
2:35 AM,66.2,60.8,83,30.06,10.0,South,4.6,-,N/A,,Clear,170,2013-08-05 07:35:00
2:55 AM,64.4,60.8,88,30.06,10.0,South,3.5,-,N/A,,Clear,170,2013-08-05 07:55:00
3:15 AM,64.4,60.8,88,30.06,10.0,Calm,Calm,-,N/A,,Clear,0,2013-08-05 08:15:00
3:35 AM,64.4,60.8,88,30.05,10.0,South,3.5,-,N/A,,Clear,170,2013-08-05 08:35:00
3:55 AM,64.4,60.8,88,30.03,10.0,South,4.6,-,N/A,,Clear,170,2013-08-05 08:55:00
4:15 AM,64.4,60.8,88,30.03,10.0,SSE,4.6,-,N/A,,Clear,160,2013-08-05 09:15:00
4:35 AM,64.4,60.8,88,30.03,10.0,South,4.6,-,N/A,,Clear,170,2013-08-05 09:35:00
4:55 AM,64.4,62.6,94,30.03,10.0,SSE,4.6,-,N/A,,Clear,160,2013-08-05 09:55:00
5:15 AM,64.4,62.6,94,30.03,10.0,SSE,5.8,-,N/A,,Scattered Clouds,160,2013-08-05 10:15:00
5:35 AM,64.4,62.6,94,30.03,10.0,SSE,4.6,-,N/A,,Mostly Cloudy,160,2013-08-05 10:35:00
5:55 AM,66.2,62.6,88,30.03,10.0,South,5.8,-,N/A,,Overcast,170,2013-08-05 10:55:00
6:15 AM,66.2,62.6,88,30.02,10.0,South,6.9,-,N/A,,Overcast,170,2013-08-05 11:15:00
6:35 AM,66.2,62.6,88,30.01,10.0,South,9.2,-,N/A,,Overcast,170,2013-08-05 11:35:00
6:55 AM,66.2,62.6,88,30.01,10.0,South,9.2,-,N/A,,Scattered Clouds,170,2013-08-05 11:55:00
7:15 AM,66.2,62.6,88,30.01,10.0,South,8.1,-,N/A,,Clear,170,2013-08-05 12:15:00
7:35 AM,66.2,62.6,88,30.02,10.0,South,8.1,-,N/A,,Clear,170,2013-08-05 12:35:00
7:55 AM,68.0,62.6,83,30.01,10.0,South,6.9,-,N/A,,Mostly Cloudy,170,2013-08-05 12:55:00
8:15 AM,68.0,62.6,83,30.00,10.0,South,5.8,-,N/A,,Overcast,170,2013-08-05 13:15:00
8:35 AM,69.8,64.4,83,30.01,10.0,South,8.1,-,N/A,,Overcast,170,2013-08-05 13:35:00
8:55 AM,69.8,64.4,83,30.01,10.0,South,6.9,-,N/A,,Overcast,170,2013-08-05 13:55:00
9:15 AM,69.8,64.4,83,30.01,10.0,South,3.5,-,N/A,,Overcast,170,2013-08-05 14:15:00
9:35 AM,69.8,64.4,83,30.00,10.0,South,5.8,-,N/A,,Overcast,180,2013-08-05 14:35:00
9:55 AM,71.6,66.2,83,29.99,10.0,South,5.8,-,N/A,,Overcast,170,2013-08-05 14:55:00
10:15 AM,73.4,66.2,78,29.99,10.0,SSE,8.1,-,N/A,,Overcast,150,2013-08-05 15:15:00
10:35 AM,73.4,66.2,78,29.98,10.0,South,8.1,-,N/A,,Overcast,170,2013-08-05 15:35:00
10:55 AM,73.4,68.0,83,29.99,10.0,South,6.9,-,N/A,,Overcast,170,2013-08-05 15:55:00
11:15 AM,73.4,68.0,83,29.99,10.0,SSE,8.1,-,N/A,,Overcast,160,2013-08-05 16:15:00
11:35 AM,73.4,68.0,83,29.99,10.0,South,5.8,-,N/A,,Overcast,170,2013-08-05 16:35:00
11:55 AM,73.4,68.0,83,29.99,10.0,South,5.8,-,N/A,,Overcast,170,2013-08-05 16:55:00
12:15 PM,73.4,69.8,88,29.99,10.0,South,4.6,-,N/A,,Overcast,170,2013-08-05 17:15:00
12:35 PM,73.4,69.8,88,29.99,10.0,Calm,Calm,-,N/A,,Overcast,0,2013-08-05 17:35:00
12:55 PM,73.4,69.8,88,29.99,4.0,SSE,4.6,-,N/A,,Haze,150,2013-08-05 17:55:00
1:15 PM,73.4,71.6,94,29.98,4.0,South,5.8,-,N/A,,Overcast,170,2013-08-05 18:15:00
1:35 PM,73.4,69.8,88,29.98,7.0,South,4.6,-,N/A,,Overcast,170,2013-08-05 18:35:00
1:55 PM,73.4,71.6,94,29.96,10.0,SE,3.5,-,N/A,,Overcast,130,2013-08-05 18:55:00
2:15 PM,75.2,71.6,89,29.96,10.0,Calm,Calm,-,N/A,,Overcast,0,2013-08-05 19:15:00
2:35 PM,77.0,71.6,83,29.95,10.0,Calm,Calm,-,N/A,,Mostly Cloudy,0,2013-08-05 19:35:00
2:55 PM,78.8,71.6,78,29.93,10.0,SSE,5.8,-,N/A,,Scattered Clouds,150,2013-08-05 19:55:00
3:15 PM,80.6,71.6,74,29.92,10.0,South,5.8,-,N/A,,Scattered Clouds,170,2013-08-05 20:15:00
3:35 PM,78.8,71.6,78,29.91,10.0,SSW,4.6,-,N/A,,Scattered Clouds,200,2013-08-05 20:35:00
3:55 PM,80.6,71.6,74,29.90,10.0,SE,5.8,-,N/A,,Mostly Cloudy,140,2013-08-05 20:55:00
4:15 PM,78.8,71.6,78,29.89,10.0,South,8.1,-,N/A,,Mostly Cloudy,170,2013-08-05 21:15:00
4:35 PM,78.8,71.6,78,29.87,10.0,South,8.1,-,N/A,,Clear,170,2013-08-05 21:35:00
4:55 PM,78.8,71.6,78,29.87,10.0,South,9.2,-,N/A,,Scattered Clouds,170,2013-08-05 21:55:00
5:15 PM,78.8,71.6,78,29.88,10.0,SSE,8.1,-,N/A,,Scattered Clouds,150,2013-08-05 22:15:00
5:35 PM,78.8,71.6,78,29.88,10.0,SSE,6.9,-,N/A,,Mostly Cloudy,150,2013-08-05 22:35:00
5:55 PM,78.8,71.6,78,29.87,10.0,South,5.8,-,N/A,,Mostly Cloudy,170,2013-08-05 22:55:00
6:15 PM,78.8,71.6,78,29.88,10.0,South,5.8,-,N/A,,Mostly Cloudy,170,2013-08-05 23:15:00
6:35 PM,78.8,71.6,78,29.88,10.0,SSE,4.6,-,N/A,,Mostly Cloudy,150,2013-08-05 23:35:00
6:55 PM,77.0,71.6,83,29.88,10.0,SSE,4.6,-,N/A,,Mostly Cloudy,160,2013-08-05 23:55:00
7:15 PM,77.0,71.6,83,29.89,10.0,SSE,4.6,-,N/A,,Mostly Cloudy,160,2013-08-06 00:15:00
7:35 PM,77.0,71.6,83,29.88,10.0,SSE,5.8,-,N/A,,Scattered Clouds,160,2013-08-06 00:35:00
7:55 PM,75.2,71.6,89,29.88,10.0,SSE,3.5,-,N/A,,Clear,160,2013-08-06 00:55:00
8:15 PM,73.4,71.6,94,29.89,10.0,SE,3.5,-,N/A,,Scattered Clouds,140,2013-08-06 01:15:00
8:35 PM,75.2,71.6,89,29.89,10.0,SSE,3.5,-,N/A,,Mostly Cloudy,150,2013-08-06 01:35:00
8:55 PM,75.2,71.6,89,29.90,10.0,SSE,4.6,-,N/A,,Overcast,150,2013-08-06 01:55:00
9:15 PM,73.4,71.6,94,29.91,10.0,South,4.6,-,N/A,,Mostly Cloudy,170,2013-08-06 02:15:00
9:35 PM,73.4,71.6,94,29.90,10.0,South,5.8,-,N/A,,Scattered Clouds,170,2013-08-06 02:35:00
9:55 PM,73.4,69.8,88,29.90,10.0,South,5.8,-,N/A,,Clear,170,2013-08-06 02:55:00
10:15 PM,71.6,69.8,94,29.90,10.0,SSE,6.9,-,N/A,,Clear,160,2013-08-06 03:15:00
10:35 PM,71.6,69.8,94,29.89,10.0,South,6.9,-,N/A,,Clear,170,2013-08-06 03:35:00
10:55 PM,71.6,69.8,94,29.89,10.0,South,6.9,-,N/A,,Clear,170,2013-08-06 03:55:00
11:15 PM,71.6,69.8,94,29.89,10.0,South,8.1,-,N/A,,Clear,170,2013-08-06 04:15:00
11:35 PM,71.6,69.8,94,29.89,7.0,South,9.2,-,N/A,,Clear,170,2013-08-06 04:35:00
11:55 PM,71.6,69.8,94,29.89,7.0,South,10.4,-,N/A,,Clear,180,2013-08-06 04:55:00